sensor_id;sensor_type;location;lat;lon;timestamp;P1;durP1;ratioP1;P2;durP2;ratioP2
45476;SDS011;31958;51.756;-2.556;2023-04-03T00:01:42;11.07;;;4.20;;
45476;SDS011;31958;51.756;-2.556;2023-04-03T00:04:21;11.63;;;4.00;;
45476;SDS011;31958;51.756;-2.556;2023-04-03T00:06:53;7.65;;;3.42;;
45476;SDS011;31958;51.756;-2.556;2023-04-03T00:09:18;6.80;;;3.60;;
45476;SDS011;31958;51.756;-2.556;2023-04-03T00:11:50;14.40;;;3.70;;
45476;SDS011;31958;51.756;-2.556;2023-04-03T00:14:22;8.13;;;3.72;;
45476;SDS011;31958;51.756;-2.556;2023-04-03T00:16:47;15.85;;;4.25;;
45476;SDS011;31958;51.756;-2.556;2023-04-03T00:24:18;8.10;;;3.88;;
45476;SDS011;31958;51.756;-2.556;2023-04-03T00:26:51;10.02;;;3.25;;
45476;SDS011;31958;51.756;-2.556;2023-04-03T00:29:23;13.00;;;3.40;;
45476;SDS011;31958;51.756;-2.556;2023-04-03T00:31:48;12.15;;;4.13;;
45476;SDS011;31958;51.756;-2.556;2023-04-03T00:34:20;14.15;;;3.85;;
45476;SDS011;31958;51.756;-2.556;2023-04-03T00:36:52;16.00;;;3.53;;
45476;SDS011;31958;51.756;-2.556;2023-04-03T00:39:17;8.48;;;3.92;;
45476;SDS011;31958;51.756;-2.556;2023-04-03T00:41:49;7.18;;;3.00;;
45476;SDS011;31958;51.756;-2.556;2023-04-03T00:45:21;7.13;;;3.17;;
45476;SDS011;31958;51.756;-2.556;2023-04-03T00:47:13;6.85;;;3.20;;
45476;SDS011;31958;51.756;-2.556;2023-04-03T00:49:48;7.28;;;2.38;;
45476;SDS011;31958;51.756;-2.556;2023-04-03T00:52:21;8.77;;;3.00;;
45476;SDS011;31958;51.756;-2.556;2023-04-03T00:54:56;7.18;;;2.83;;
45476;SDS011;31958;51.756;-2.556;2023-04-03T00:57:30;7.68;;;3.13;;
45476;SDS011;31958;51.756;-2.556;2023-04-03T01:00:06;7.38;;;3.05;;
45476;SDS011;31958;51.756;-2.556;2023-04-03T01:02:41;5.45;;;2.88;;
45476;SDS011;31958;51.756;-2.556;2023-04-03T01:05:13;11.93;;;3.28;;
45476;SDS011;31958;51.756;-2.556;2023-04-03T01:07:40;11.18;;;3.97;;
45476;SDS011;31958;51.756;-2.556;2023-04-03T01:10:12;10.02;;;3.65;;
45476;SDS011;31958;51.756;-2.556;2023-04-03T01:12:47;7.13;;;2.92;;
45476;SDS011;31958;51.756;-2.556;2023-04-03T01:15:22;6.65;;;2.60;;
45476;SDS011;31958;51.756;-2.556;2023-04-03T01:17:59;6.10;;;2.92;;
45476;SDS011;31958;51.756;-2.556;2023-04-03T01:25:43;9.48;;;2.92;;
45476;SDS011;31958;51.756;-2.556;2023-04-03T01:28:24;4.82;;;2.25;;
45476;SDS011;31958;51.756;-2.556;2023-04-03T01:33:30;11.10;;;2.95;;
45476;SDS011;31958;51.756;-2.556;2023-04-03T01:35:56;8.45;;;3.67;;
45476;SDS011;31958;51.756;-2.556;2023-04-03T01:38:28;10.93;;;2.83;;
45476;SDS011;31958;51.756;-2.556;2023-04-03T01:41:00;6.10;;;2.83;;
45476;SDS011;31958;51.756;-2.556;2023-04-03T01:43:25;18.63;;;3.30;;
45476;SDS011;31958;51.756;-2.556;2023-04-03T01:45:58;12.77;;;2.70;;
45476;SDS011;31958;51.756;-2.556;2023-04-03T01:48:30;11.35;;;2.65;;
45476;SDS011;31958;51.756;-2.556;2023-04-03T01:50:55;10.20;;;3.28;;
45476;SDS011;31958;51.756;-2.556;2023-04-03T01:53:27;8.85;;;3.08;;
45476;SDS011;31958;51.756;-2.556;2023-04-03T01:55:59;8.90;;;3.05;;
45476;SDS011;31958;51.756;-2.556;2023-04-03T01:58:24;4.95;;;2.80;;
45476;SDS011;31958;51.756;-2.556;2023-04-03T02:00:57;7.40;;;2.83;;
45476;SDS011;31958;51.756;-2.556;2023-04-03T02:03:29;6.47;;;3.03;;
45476;SDS011;31958;51.756;-2.556;2023-04-03T02:05:55;14.68;;;2.92;;
45476;SDS011;31958;51.756;-2.556;2023-04-03T02:08:28;5.85;;;2.88;;
45476;SDS011;31958;51.756;-2.556;2023-04-03T02:11:00;7.13;;;2.50;;
45476;SDS011;31958;51.756;-2.556;2023-04-03T02:13:25;6.70;;;2.50;;
45476;SDS011;31958;51.756;-2.556;2023-04-03T02:15:58;5.68;;;2.60;;
45476;SDS011;31958;51.756;-2.556;2023-04-03T02:18:30;8.95;;;2.47;;
45476;SDS011;31958;51.756;-2.556;2023-04-03T02:20:55;6.28;;;2.10;;
45476;SDS011;31958;51.756;-2.556;2023-04-03T02:23:27;7.70;;;2.25;;
45476;SDS011;31958;51.756;-2.556;2023-04-03T02:26:08;11.38;;;2.33;;
45476;SDS011;31958;51.756;-2.556;2023-04-03T02:28:42;14.10;;;2.08;;
45476;SDS011;31958;51.756;-2.556;2023-04-03T02:31:14;3.60;;;2.15;;
45476;SDS011;31958;51.756;-2.556;2023-04-03T02:33:39;6.82;;;3.03;;
45476;SDS011;31958;51.756;-2.556;2023-04-03T02:36:12;6.28;;;1.75;;
45476;SDS011;31958;51.756;-2.556;2023-04-03T02:38:44;12.25;;;3.13;;
45476;SDS011;31958;51.756;-2.556;2023-04-03T02:41:10;10.38;;;2.05;;
45476;SDS011;31958;51.756;-2.556;2023-04-03T02:43:43;7.28;;;3.05;;
45476;SDS011;31958;51.756;-2.556;2023-04-03T02:46:15;6.13;;;2.75;;
45476;SDS011;31958;51.756;-2.556;2023-04-03T02:48:40;5.60;;;2.15;;
45476;SDS011;31958;51.756;-2.556;2023-04-03T02:51:12;10.90;;;3.17;;
45476;SDS011;31958;51.756;-2.556;2023-04-03T02:53:44;8.13;;;2.80;;
45476;SDS011;31958;51.756;-2.556;2023-04-03T02:56:09;7.55;;;2.90;;
45476;SDS011;31958;51.756;-2.556;2023-04-03T02:58:42;10.50;;;3.35;;
45476;SDS011;31958;51.756;-2.556;2023-04-03T03:01:14;8.82;;;2.40;;
45476;SDS011;31958;51.756;-2.556;2023-04-03T03:03:40;6.85;;;2.88;;
45476;SDS011;31958;51.756;-2.556;2023-04-03T03:06:13;10.00;;;2.45;;
45476;SDS011;31958;51.756;-2.556;2023-04-03T03:08:46;10.13;;;2.50;;
45476;SDS011;31958;51.756;-2.556;2023-04-03T03:11:11;2.92;;;1.92;;
45476;SDS011;31958;51.756;-2.556;2023-04-03T03:13:44;10.20;;;2.65;;
45476;SDS011;31958;51.756;-2.556;2023-04-03T03:16:16;14.10;;;2.63;;
45476;SDS011;31958;51.756;-2.556;2023-04-03T03:18:41;16.23;;;2.80;;
45476;SDS011;31958;51.756;-2.556;2023-04-03T03:21:13;9.30;;;2.63;;
45476;SDS011;31958;51.756;-2.556;2023-04-03T03:23:45;9.95;;;2.95;;
45476;SDS011;31958;51.756;-2.556;2023-04-03T03:26:10;9.50;;;3.30;;
45476;SDS011;31958;51.756;-2.556;2023-04-03T03:28:43;6.43;;;3.08;;
45476;SDS011;31958;51.756;-2.556;2023-04-03T03:31:15;7.43;;;2.63;;
45476;SDS011;31958;51.756;-2.556;2023-04-03T03:33:40;11.05;;;3.58;;
45476;SDS011;31958;51.756;-2.556;2023-04-03T03:36:13;7.60;;;2.67;;
45476;SDS011;31958;51.756;-2.556;2023-04-03T03:38:45;9.57;;;2.45;;
45476;SDS011;31958;51.756;-2.556;2023-04-03T03:41:10;10.85;;;2.65;;
45476;SDS011;31958;51.756;-2.556;2023-04-03T03:43:42;8.52;;;3.03;;
45476;SDS011;31958;51.756;-2.556;2023-04-03T03:46:14;8.02;;;2.53;;
45476;SDS011;31958;51.756;-2.556;2023-04-03T03:48:40;8.35;;;2.30;;
45476;SDS011;31958;51.756;-2.556;2023-04-03T03:51:12;8.73;;;2.53;;
45476;SDS011;31958;51.756;-2.556;2023-04-03T03:53:44;4.88;;;1.92;;
45476;SDS011;31958;51.756;-2.556;2023-04-03T03:56:09;9.32;;;1.80;;
45476;SDS011;31958;51.756;-2.556;2023-04-03T03:58:41;7.75;;;2.30;;
45476;SDS011;31958;51.756;-2.556;2023-04-03T04:01:14;3.78;;;2.10;;
45476;SDS011;31958;51.756;-2.556;2023-04-03T04:03:40;6.40;;;2.20;;
45476;SDS011;31958;51.756;-2.556;2023-04-03T04:06:12;4.00;;;2.15;;
45476;SDS011;31958;51.756;-2.556;2023-04-03T04:08:44;7.30;;;2.55;;
45476;SDS011;31958;51.756;-2.556;2023-04-03T04:11:09;17.00;;;2.25;;
45476;SDS011;31958;51.756;-2.556;2023-04-03T04:13:42;3.95;;;1.90;;
45476;SDS011;31958;51.756;-2.556;2023-04-03T04:16:14;2.53;;;1.52;;
45476;SDS011;31958;51.756;-2.556;2023-04-03T04:18:39;7.78;;;1.63;;
45476;SDS011;31958;51.756;-2.556;2023-04-03T04:21:11;5.75;;;2.22;;
45476;SDS011;31958;51.756;-2.556;2023-04-03T04:23:43;4.20;;;2.03;;
45476;SDS011;31958;51.756;-2.556;2023-04-03T04:26:08;8.85;;;2.00;;
45476;SDS011;31958;51.756;-2.556;2023-04-03T04:28:40;4.93;;;2.15;;
45476;SDS011;31958;51.756;-2.556;2023-04-03T04:31:12;3.20;;;1.73;;
45476;SDS011;31958;51.756;-2.556;2023-04-03T04:33:37;4.22;;;2.10;;
45476;SDS011;31958;51.756;-2.556;2023-04-03T04:36:09;9.63;;;1.77;;
45476;SDS011;31958;51.756;-2.556;2023-04-03T04:38:41;4.32;;;1.90;;
45476;SDS011;31958;51.756;-2.556;2023-04-03T04:41:07;11.15;;;2.05;;
45476;SDS011;31958;51.756;-2.556;2023-04-03T04:43:39;5.70;;;2.20;;
45476;SDS011;31958;51.756;-2.556;2023-04-03T04:46:11;5.37;;;1.67;;
45476;SDS011;31958;51.756;-2.556;2023-04-03T04:48:37;11.77;;;2.28;;
45476;SDS011;31958;51.756;-2.556;2023-04-03T04:51:09;4.25;;;1.70;;
45476;SDS011;31958;51.756;-2.556;2023-04-03T04:53:42;6.82;;;1.60;;
45476;SDS011;31958;51.756;-2.556;2023-04-03T04:56:08;2.83;;;1.40;;
45476;SDS011;31958;51.756;-2.556;2023-04-03T04:58:40;6.53;;;2.03;;
45476;SDS011;31958;51.756;-2.556;2023-04-03T05:01:12;6.03;;;1.73;;
45476;SDS011;31958;51.756;-2.556;2023-04-03T05:03:37;4.22;;;1.70;;
45476;SDS011;31958;51.756;-2.556;2023-04-03T05:06:09;5.70;;;1.65;;
45476;SDS011;31958;51.756;-2.556;2023-04-03T05:08:41;2.83;;;1.75;;
45476;SDS011;31958;51.756;-2.556;2023-04-03T05:11:06;3.10;;;2.05;;
45476;SDS011;31958;51.756;-2.556;2023-04-03T05:13:38;3.75;;;2.38;;
45476;SDS011;31958;51.756;-2.556;2023-04-03T05:16:10;5.70;;;1.80;;
45476;SDS011;31958;51.756;-2.556;2023-04-03T05:18:36;7.07;;;1.92;;
45476;SDS011;31958;51.756;-2.556;2023-04-03T05:21:08;8.60;;;2.08;;
45476;SDS011;31958;51.756;-2.556;2023-04-03T05:23:40;5.40;;;1.80;;
45476;SDS011;31958;51.756;-2.556;2023-04-03T05:26:05;5.65;;;2.13;;
45476;SDS011;31958;51.756;-2.556;2023-04-03T05:28:37;4.53;;;1.90;;
45476;SDS011;31958;51.756;-2.556;2023-04-03T05:31:09;4.60;;;1.65;;
45476;SDS011;31958;51.756;-2.556;2023-04-03T05:33:34;5.75;;;2.10;;
45476;SDS011;31958;51.756;-2.556;2023-04-03T05:36:06;3.80;;;1.70;;
45476;SDS011;31958;51.756;-2.556;2023-04-03T05:38:38;2.30;;;1.33;;
45476;SDS011;31958;51.756;-2.556;2023-04-03T05:41:04;2.85;;;1.20;;
45476;SDS011;31958;51.756;-2.556;2023-04-03T05:43:37;6.22;;;2.50;;
45476;SDS011;31958;51.756;-2.556;2023-04-03T05:46:10;5.25;;;2.28;;
45476;SDS011;31958;51.756;-2.556;2023-04-03T05:48:37;3.75;;;2.05;;
45476;SDS011;31958;51.756;-2.556;2023-04-03T05:51:22;11.65;;;2.28;;
45476;SDS011;31958;51.756;-2.556;2023-04-03T05:54:00;9.93;;;2.00;;
45476;SDS011;31958;51.756;-2.556;2023-04-03T05:57:05;8.68;;;1.35;;
45476;SDS011;31958;51.756;-2.556;2023-04-03T05:59:37;4.15;;;1.70;;
45476;SDS011;31958;51.756;-2.556;2023-04-03T06:02:02;8.77;;;2.05;;
45476;SDS011;31958;51.756;-2.556;2023-04-03T06:04:34;2.72;;;1.67;;
45476;SDS011;31958;51.756;-2.556;2023-04-03T06:07:06;2.95;;;1.60;;
45476;SDS011;31958;51.756;-2.556;2023-04-03T06:09:32;4.10;;;1.67;;
45476;SDS011;31958;51.756;-2.556;2023-04-03T06:12:04;3.22;;;1.75;;
45476;SDS011;31958;51.756;-2.556;2023-04-03T06:14:36;6.85;;;2.47;;
45476;SDS011;31958;51.756;-2.556;2023-04-03T06:17:01;7.50;;;1.88;;
45476;SDS011;31958;51.756;-2.556;2023-04-03T06:19:34;5.47;;;1.67;;
45476;SDS011;31958;51.756;-2.556;2023-04-03T06:22:07;5.70;;;1.50;;
45476;SDS011;31958;51.756;-2.556;2023-04-03T06:24:32;3.20;;;1.50;;
45476;SDS011;31958;51.756;-2.556;2023-04-03T06:29:37;6.97;;;1.75;;
45476;SDS011;31958;51.756;-2.556;2023-04-03T06:32:02;68.68;;;4.72;;
45476;SDS011;31958;51.756;-2.556;2023-04-03T06:34:34;352.73;;;17.67;;
45476;SDS011;31958;51.756;-2.556;2023-04-03T06:37:10;327.25;;;17.25;;
45476;SDS011;31958;51.756;-2.556;2023-04-03T06:39:55;1986.40;;;97.28;;
45476;SDS011;31958;51.756;-2.556;2023-04-03T06:42:27;993.50;;;48.80;;
45476;SDS011;31958;51.756;-2.556;2023-04-03T06:44:52;1647.80;;;70.43;;
45476;SDS011;31958;51.756;-2.556;2023-04-03T06:49:56;1999.90;;;120.15;;
45476;SDS011;31958;51.756;-2.556;2023-04-03T06:52:21;1740.28;;;79.07;;
45476;SDS011;31958;51.756;-2.556;2023-04-03T06:54:53;615.97;;;31.17;;
45476;SDS011;31958;51.756;-2.556;2023-04-03T06:57:29;1999.90;;;105.95;;
45476;SDS011;31958;51.756;-2.556;2023-04-03T07:00:01;1228.25;;;56.40;;
45476;SDS011;31958;51.756;-2.556;2023-04-03T07:02:28;1246.65;;;52.45;;
45476;SDS011;31958;51.756;-2.556;2023-04-03T07:05:00;1053.18;;;55.83;;
45476;SDS011;31958;51.756;-2.556;2023-04-03T07:07:32;907.75;;;46.47;;
45476;SDS011;31958;51.756;-2.556;2023-04-03T07:09:59;142.77;;;8.30;;
45476;SDS011;31958;51.756;-2.556;2023-04-03T07:12:31;564.22;;;28.67;;
45476;SDS011;31958;51.756;-2.556;2023-04-03T07:15:04;107.43;;;6.30;;
45476;SDS011;31958;51.756;-2.556;2023-04-03T07:17:30;4.30;;;1.45;;
45476;SDS011;31958;51.756;-2.556;2023-04-03T07:20:03;5.60;;;1.88;;
45476;SDS011;31958;51.756;-2.556;2023-04-03T07:22:35;5.65;;;1.75;;
45476;SDS011;31958;51.756;-2.556;2023-04-03T07:25:01;5.55;;;2.03;;
45476;SDS011;31958;51.756;-2.556;2023-04-03T07:27:34;4.70;;;1.60;;
45476;SDS011;31958;51.756;-2.556;2023-04-03T07:30:06;3.50;;;1.50;;
45476;SDS011;31958;51.756;-2.556;2023-04-03T07:32:32;4.93;;;1.85;;
45476;SDS011;31958;51.756;-2.556;2023-04-03T07:35:05;9.65;;;1.80;;
45476;SDS011;31958;51.756;-2.556;2023-04-03T07:37:37;5.28;;;2.13;;
45476;SDS011;31958;51.756;-2.556;2023-04-03T07:40:02;6.25;;;2.22;;
45476;SDS011;31958;51.756;-2.556;2023-04-03T07:42:36;5.80;;;2.88;;
45476;SDS011;31958;51.756;-2.556;2023-04-03T07:45:08;7.47;;;2.40;;
45476;SDS011;31958;51.756;-2.556;2023-04-03T07:47:34;7.95;;;2.15;;
45476;SDS011;31958;51.756;-2.556;2023-04-03T07:50:06;6.60;;;1.48;;
45476;SDS011;31958;51.756;-2.556;2023-04-03T07:52:39;5.88;;;1.98;;
45476;SDS011;31958;51.756;-2.556;2023-04-03T07:55:05;3.78;;;1.75;;
45476;SDS011;31958;51.756;-2.556;2023-04-03T07:57:38;4.72;;;2.28;;
45476;SDS011;31958;51.756;-2.556;2023-04-03T08:00:10;8.43;;;2.08;;
45476;SDS011;31958;51.756;-2.556;2023-04-03T08:02:37;4.47;;;1.30;;
45476;SDS011;31958;51.756;-2.556;2023-04-03T08:05:09;5.93;;;1.60;;
45476;SDS011;31958;51.756;-2.556;2023-04-03T08:07:41;4.05;;;1.40;;
45476;SDS011;31958;51.756;-2.556;2023-04-03T08:10:06;7.68;;;1.80;;
45476;SDS011;31958;51.756;-2.556;2023-04-03T08:12:39;8.00;;;2.03;;
45476;SDS011;31958;51.756;-2.556;2023-04-03T08:15:11;6.45;;;1.65;;
45476;SDS011;31958;51.756;-2.556;2023-04-03T08:17:36;11.65;;;2.58;;
45476;SDS011;31958;51.756;-2.556;2023-04-03T08:20:09;4.57;;;1.30;;
45476;SDS011;31958;51.756;-2.556;2023-04-03T08:22:42;8.10;;;1.92;;
45476;SDS011;31958;51.756;-2.556;2023-04-03T08:25:07;12.27;;;1.70;;
45476;SDS011;31958;51.756;-2.556;2023-04-03T08:27:40;13.25;;;2.03;;
45476;SDS011;31958;51.756;-2.556;2023-04-03T08:30:12;10.70;;;1.75;;
45476;SDS011;31958;51.756;-2.556;2023-04-03T08:32:45;5.97;;;1.73;;
45476;SDS011;31958;51.756;-2.556;2023-04-03T08:35:10;6.68;;;1.75;;
45476;SDS011;31958;51.756;-2.556;2023-04-03T08:37:44;8.23;;;1.77;;
45476;SDS011;31958;51.756;-2.556;2023-04-03T08:40:17;6.07;;;1.48;;
45476;SDS011;31958;51.756;-2.556;2023-04-03T08:45:44;6.65;;;1.73;;
45476;SDS011;31958;51.756;-2.556;2023-04-03T08:48:15;7.72;;;1.88;;
45476;SDS011;31958;51.756;-2.556;2023-04-03T08:50:57;8.55;;;1.90;;
45476;SDS011;31958;51.756;-2.556;2023-04-03T08:53:25;8.30;;;1.60;;
45476;SDS011;31958;51.756;-2.556;2023-04-03T08:56:07;8.55;;;1.75;;
45476;SDS011;31958;51.756;-2.556;2023-04-03T08:58:40;10.77;;;1.83;;
45476;SDS011;31958;51.756;-2.556;2023-04-03T09:03:55;11.13;;;2.22;;
45476;SDS011;31958;51.756;-2.556;2023-04-03T09:06:21;5.40;;;1.60;;
45476;SDS011;31958;51.756;-2.556;2023-04-03T09:17:04;6.68;;;1.48;;
45476;SDS011;31958;51.756;-2.556;2023-04-03T09:20:02;8.35;;;1.42;;
45476;SDS011;31958;51.756;-2.556;2023-04-03T09:22:32;9.55;;;1.90;;
45476;SDS011;31958;51.756;-2.556;2023-04-03T09:27:45;5.15;;;1.67;;
45476;SDS011;31958;51.756;-2.556;2023-04-03T09:30:24;11.27;;;1.92;;
45476;SDS011;31958;51.756;-2.556;2023-04-03T09:40:41;9.25;;;2.00;;
45476;SDS011;31958;51.756;-2.556;2023-04-03T09:43:27;10.55;;;2.13;;
45476;SDS011;31958;51.756;-2.556;2023-04-03T09:45:54;9.02;;;2.15;;
45476;SDS011;31958;51.756;-2.556;2023-04-03T09:48:34;9.50;;;2.28;;
45476;SDS011;31958;51.756;-2.556;2023-04-03T09:51:00;6.50;;;1.80;;
45476;SDS011;31958;51.756;-2.556;2023-04-03T09:53:35;8.75;;;1.95;;
45476;SDS011;31958;51.756;-2.556;2023-04-03T09:58:42;7.45;;;1.80;;
45476;SDS011;31958;51.756;-2.556;2023-04-03T10:01:42;9.68;;;1.60;;
45476;SDS011;31958;51.756;-2.556;2023-04-03T10:04:17;4.50;;;1.67;;
45476;SDS011;31958;51.756;-2.556;2023-04-03T10:06:54;13.35;;;3.05;;
45476;SDS011;31958;51.756;-2.556;2023-04-03T10:09:31;8.52;;;1.83;;
45476;SDS011;31958;51.756;-2.556;2023-04-03T10:12:11;7.60;;;1.90;;
45476;SDS011;31958;51.756;-2.556;2023-04-03T10:14:59;8.40;;;1.83;;
45476;SDS011;31958;51.756;-2.556;2023-04-03T10:20:29;10.52;;;2.10;;
45476;SDS011;31958;51.756;-2.556;2023-04-03T10:23:15;3.88;;;1.50;;
45476;SDS011;31958;51.756;-2.556;2023-04-03T10:28:39;7.40;;;1.90;;
45476;SDS011;31958;51.756;-2.556;2023-04-03T10:39:23;10.00;;;2.22;;
45476;SDS011;31958;51.756;-2.556;2023-04-03T10:42:05;6.68;;;1.85;;
45476;SDS011;31958;51.756;-2.556;2023-04-03T10:50:51;7.82;;;1.92;;
45476;SDS011;31958;51.756;-2.556;2023-04-03T10:53:31;7.30;;;2.00;;
45476;SDS011;31958;51.756;-2.556;2023-04-03T10:56:54;6.55;;;1.63;;
45476;SDS011;31958;51.756;-2.556;2023-04-03T11:05:17;6.13;;;1.80;;
45476;SDS011;31958;51.756;-2.556;2023-04-03T11:08:02;6.68;;;1.75;;
45476;SDS011;31958;51.756;-2.556;2023-04-03T11:10:41;6.40;;;1.83;;
45476;SDS011;31958;51.756;-2.556;2023-04-03T11:15:55;5.50;;;1.73;;
45476;SDS011;31958;51.756;-2.556;2023-04-03T11:21:52;6.28;;;1.63;;
45476;SDS011;31958;51.756;-2.556;2023-04-03T11:24:27;5.47;;;2.00;;
45476;SDS011;31958;51.756;-2.556;2023-04-03T11:27:01;6.32;;;2.15;;
45476;SDS011;31958;51.756;-2.556;2023-04-03T11:29:35;6.80;;;2.88;;
45476;SDS011;31958;51.756;-2.556;2023-04-03T11:32:18;6.05;;;2.35;;
45476;SDS011;31958;51.756;-2.556;2023-04-03T11:35:00;3.13;;;1.48;;
45476;SDS011;31958;51.756;-2.556;2023-04-03T11:37:35;9.35;;;2.22;;
45476;SDS011;31958;51.756;-2.556;2023-04-03T11:42:49;6.47;;;1.83;;
45476;SDS011;31958;51.756;-2.556;2023-04-03T11:48:00;5.60;;;2.25;;
45476;SDS011;31958;51.756;-2.556;2023-04-03T11:58:11;10.65;;;2.55;;
45476;SDS011;31958;51.756;-2.556;2023-04-03T12:44:06;5.72;;;1.67;;
45476;SDS011;31958;51.756;-2.556;2023-04-03T12:47:00;10.23;;;1.98;;
45476;SDS011;31958;51.756;-2.556;2023-04-03T12:49:40;4.28;;;1.98;;
45476;SDS011;31958;51.756;-2.556;2023-04-03T12:52:47;4.25;;;2.08;;
45476;SDS011;31958;51.756;-2.556;2023-04-03T12:55:31;5.72;;;1.75;;
45476;SDS011;31958;51.756;-2.556;2023-04-03T13:01:18;6.88;;;1.73;;
45476;SDS011;31958;51.756;-2.556;2023-04-03T13:04:00;6.00;;;2.03;;
45476;SDS011;31958;51.756;-2.556;2023-04-03T13:06:35;5.10;;;1.70;;
45476;SDS011;31958;51.756;-2.556;2023-04-03T13:09:30;4.82;;;1.98;;
45476;SDS011;31958;51.756;-2.556;2023-04-03T13:12:07;3.05;;;1.63;;
45476;SDS011;31958;51.756;-2.556;2023-04-03T13:14:53;5.43;;;1.77;;
45476;SDS011;31958;51.756;-2.556;2023-04-03T13:17:27;6.97;;;1.80;;
45476;SDS011;31958;51.756;-2.556;2023-04-03T13:20:10;7.40;;;2.17;;
45476;SDS011;31958;51.756;-2.556;2023-04-03T13:23:04;6.25;;;2.10;;
45476;SDS011;31958;51.756;-2.556;2023-04-03T13:25:40;6.15;;;1.65;;
45476;SDS011;31958;51.756;-2.556;2023-04-03T13:28:15;6.97;;;2.25;;
45476;SDS011;31958;51.756;-2.556;2023-04-03T13:33:38;10.85;;;1.80;;
45476;SDS011;31958;51.756;-2.556;2023-04-03T13:36:18;9.43;;;2.25;;
45476;SDS011;31958;51.756;-2.556;2023-04-03T13:39:18;6.38;;;1.35;;
45476;SDS011;31958;51.756;-2.556;2023-04-03T13:41:57;3.92;;;1.55;;
45476;SDS011;31958;51.756;-2.556;2023-04-03T13:47:46;6.78;;;1.83;;
45476;SDS011;31958;51.756;-2.556;2023-04-03T13:50:24;11.77;;;2.25;;
45476;SDS011;31958;51.756;-2.556;2023-04-03T13:53:02;7.55;;;2.33;;
45476;SDS011;31958;51.756;-2.556;2023-04-03T13:55:36;9.40;;;2.05;;
45476;SDS011;31958;51.756;-2.556;2023-04-03T14:00:58;8.02;;;2.13;;
45476;SDS011;31958;51.756;-2.556;2023-04-03T14:03:37;10.88;;;2.40;;
45476;SDS011;31958;51.756;-2.556;2023-04-03T14:06:15;5.85;;;1.80;;
45476;SDS011;31958;51.756;-2.556;2023-04-03T14:08:48;6.95;;;2.42;;
45476;SDS011;31958;51.756;-2.556;2023-04-03T14:11:24;11.65;;;2.60;;
45476;SDS011;31958;51.756;-2.556;2023-04-03T14:14:11;9.85;;;2.88;;
45476;SDS011;31958;51.756;-2.556;2023-04-03T14:16:41;6.32;;;2.10;;
45476;SDS011;31958;51.756;-2.556;2023-04-03T14:19:25;7.28;;;2.05;;
45476;SDS011;31958;51.756;-2.556;2023-04-03T14:21:53;7.07;;;2.78;;
45476;SDS011;31958;51.756;-2.556;2023-04-03T14:24:33;7.05;;;2.58;;
45476;SDS011;31958;51.756;-2.556;2023-04-03T14:26:59;7.93;;;1.73;;
45476;SDS011;31958;51.756;-2.556;2023-04-03T14:29:25;7.47;;;2.35;;
45476;SDS011;31958;51.756;-2.556;2023-04-03T14:32:04;5.95;;;2.25;;
45476;SDS011;31958;51.756;-2.556;2023-04-03T14:34:30;5.35;;;2.17;;
45476;SDS011;31958;51.756;-2.556;2023-04-03T14:36:55;7.78;;;2.00;;
45476;SDS011;31958;51.756;-2.556;2023-04-03T14:39:34;5.18;;;2.13;;
45476;SDS011;31958;51.756;-2.556;2023-04-03T14:41:59;9.18;;;1.80;;
45476;SDS011;31958;51.756;-2.556;2023-04-03T14:44:25;7.72;;;2.20;;
45476;SDS011;31958;51.756;-2.556;2023-04-03T14:47:04;7.53;;;2.38;;
45476;SDS011;31958;51.756;-2.556;2023-04-03T14:49:29;8.35;;;2.00;;
45476;SDS011;31958;51.756;-2.556;2023-04-03T14:51:56;6.65;;;1.48;;
45476;SDS011;31958;51.756;-2.556;2023-04-03T14:54:35;8.55;;;2.30;;
45476;SDS011;31958;51.756;-2.556;2023-04-03T14:57:00;10.57;;;2.30;;
45476;SDS011;31958;51.756;-2.556;2023-04-03T14:59:27;8.25;;;2.10;;
45476;SDS011;31958;51.756;-2.556;2023-04-03T15:02:25;8.75;;;2.15;;
45476;SDS011;31958;51.756;-2.556;2023-04-03T15:04:55;4.78;;;1.90;;
45476;SDS011;31958;51.756;-2.556;2023-04-03T15:07:36;7.65;;;2.53;;
45476;SDS011;31958;51.756;-2.556;2023-04-03T15:10:06;6.53;;;2.05;;
45476;SDS011;31958;51.756;-2.556;2023-04-03T15:12:55;6.38;;;2.30;;
45476;SDS011;31958;51.756;-2.556;2023-04-03T15:15:21;7.30;;;2.58;;
45476;SDS011;31958;51.756;-2.556;2023-04-03T15:17:47;6.63;;;2.00;;
45476;SDS011;31958;51.756;-2.556;2023-04-03T15:20:30;4.07;;;1.73;;
45476;SDS011;31958;51.756;-2.556;2023-04-03T15:22:58;11.88;;;2.13;;
45476;SDS011;31958;51.756;-2.556;2023-04-03T15:25:37;7.40;;;2.37;;
45476;SDS011;31958;51.756;-2.556;2023-04-03T15:28:02;4.97;;;2.17;;
45476;SDS011;31958;51.756;-2.556;2023-04-03T15:30:28;4.50;;;2.13;;
45476;SDS011;31958;51.756;-2.556;2023-04-03T15:33:07;5.78;;;2.05;;
45476;SDS011;31958;51.756;-2.556;2023-04-03T15:35:32;7.65;;;2.42;;
45476;SDS011;31958;51.756;-2.556;2023-04-03T15:37:57;6.40;;;2.33;;
45476;SDS011;31958;51.756;-2.556;2023-04-03T15:40:36;4.05;;;1.88;;
45476;SDS011;31958;51.756;-2.556;2023-04-03T15:43:02;7.70;;;2.53;;
45476;SDS011;31958;51.756;-2.556;2023-04-03T15:45:28;11.85;;;3.00;;
45476;SDS011;31958;51.756;-2.556;2023-04-03T15:48:08;8.95;;;2.67;;
45476;SDS011;31958;51.756;-2.556;2023-04-03T15:50:34;10.32;;;2.90;;
45476;SDS011;31958;51.756;-2.556;2023-04-03T15:53:00;9.73;;;2.58;;
45476;SDS011;31958;51.756;-2.556;2023-04-03T15:55:39;7.03;;;2.58;;
45476;SDS011;31958;51.756;-2.556;2023-04-03T15:58:04;5.75;;;2.00;;
45476;SDS011;31958;51.756;-2.556;2023-04-03T16:00:30;6.40;;;2.28;;
45476;SDS011;31958;51.756;-2.556;2023-04-03T16:03:10;7.43;;;2.20;;
45476;SDS011;31958;51.756;-2.556;2023-04-03T16:05:37;7.68;;;2.42;;
45476;SDS011;31958;51.756;-2.556;2023-04-03T16:08:17;7.35;;;2.65;;
45476;SDS011;31958;51.756;-2.556;2023-04-03T16:10:43;7.10;;;2.83;;
45476;SDS011;31958;51.756;-2.556;2023-04-03T16:13:10;8.50;;;2.67;;
45476;SDS011;31958;51.756;-2.556;2023-04-03T16:15:49;7.30;;;2.80;;
45476;SDS011;31958;51.756;-2.556;2023-04-03T16:18:14;10.32;;;2.67;;
45476;SDS011;31958;51.756;-2.556;2023-04-03T16:20:40;8.77;;;2.60;;
45476;SDS011;31958;51.756;-2.556;2023-04-03T16:23:19;5.63;;;2.67;;
45476;SDS011;31958;51.756;-2.556;2023-04-03T16:25:45;7.55;;;2.53;;
45476;SDS011;31958;51.756;-2.556;2023-04-03T16:28:11;7.65;;;2.22;;
45476;SDS011;31958;51.756;-2.556;2023-04-03T16:30:53;7.57;;;2.88;;
45476;SDS011;31958;51.756;-2.556;2023-04-03T16:33:18;10.93;;;3.17;;
45476;SDS011;31958;51.756;-2.556;2023-04-03T16:35:46;10.40;;;2.83;;
45476;SDS011;31958;51.756;-2.556;2023-04-03T16:38:25;9.35;;;2.65;;
45476;SDS011;31958;51.756;-2.556;2023-04-03T16:40:50;7.22;;;2.72;;
45476;SDS011;31958;51.756;-2.556;2023-04-03T16:43:17;7.50;;;2.53;;
45476;SDS011;31958;51.756;-2.556;2023-04-03T16:45:56;7.82;;;2.78;;
45476;SDS011;31958;51.756;-2.556;2023-04-03T16:48:22;4.20;;;2.65;;
45476;SDS011;31958;51.756;-2.556;2023-04-03T16:50:48;5.22;;;2.63;;
45476;SDS011;31958;51.756;-2.556;2023-04-03T16:53:27;8.90;;;2.90;;
45476;SDS011;31958;51.756;-2.556;2023-04-03T16:55:53;9.30;;;2.63;;
45476;SDS011;31958;51.756;-2.556;2023-04-03T16:58:18;12.13;;;2.72;;
45476;SDS011;31958;51.756;-2.556;2023-04-03T17:00:57;4.15;;;2.42;;
45476;SDS011;31958;51.756;-2.556;2023-04-03T17:03:22;7.65;;;2.67;;
45476;SDS011;31958;51.756;-2.556;2023-04-03T17:05:50;6.40;;;2.80;;
45476;SDS011;31958;51.756;-2.556;2023-04-03T17:08:29;8.75;;;2.83;;
45476;SDS011;31958;51.756;-2.556;2023-04-03T17:10:54;5.45;;;2.63;;
45476;SDS011;31958;51.756;-2.556;2023-04-03T17:13:20;6.57;;;2.22;;
45476;SDS011;31958;51.756;-2.556;2023-04-03T17:16:04;11.45;;;2.85;;
45476;SDS011;31958;51.756;-2.556;2023-04-03T17:18:31;8.43;;;2.67;;
45476;SDS011;31958;51.756;-2.556;2023-04-03T17:21:11;7.20;;;3.08;;
45476;SDS011;31958;51.756;-2.556;2023-04-03T17:23:37;6.40;;;2.80;;
45476;SDS011;31958;51.756;-2.556;2023-04-03T17:26:18;8.35;;;3.28;;
45476;SDS011;31958;51.756;-2.556;2023-04-03T17:28:43;6.68;;;3.00;;